AirNav   TITAN Aviation Fuels
 
 1712 users online  

3CA7 Metz Airport
Greenfield, California, USA

GOING TO GREENFIELD?


FAA INFORMATION EFFECTIVE 04 NOVEMBER 2021

Location

FAA Identifier: 3CA7
Lat/Long: 36-19-41.8770N 121-11-11.7180W
36-19.697950N 121-11.195300W
36.3282992,-121.1865883
(estimated)
Elevation: 240 ft. / 73 m (estimated)
Variation: 15E (1985)
From city: 3 miles E of GREENFIELD, CA
Time zone: UTC -7 (UTC -8 during Standard Time)
Zip code: 93930

Airport Operations

Airport use: Private use. Permission required prior to landing
Activation date: 10/1977
Control tower: no
ARTCC: OAKLAND CENTER
FSS: OAKLAND FLIGHT SERVICE STATION
Attendance: CONTINUOUS
Wind indicator: yes
Segmented circle: yes
Lights: FOR LIRL RY 15/33 - 122.8.

Airport Communications

UNICOM: 122.8
WX AWOS-AV at 09CA (8 nm S): 120.800 (831-386-7456)

Nearby radio navigation aids

VOR radial/distance  VOR name  Freq  Var
BSRr052/23.7BIG SUR VORTAC114.0016E
SNSr118/28.4SALINAS VORTAC117.3017E
PXNr204/30.4PANOCHE VORTAC112.6016E

 
NDB name  Hdg/Dist  Freq  Var  ID
CHUALAR109/17.026316EUAD ..- .- -..
HUNTER LIGGETT345/22.020915EHGT .... --. -

Airport Services

Runway Information

Runway 15/33

Dimensions: 3400 x 50 ft. / 1036 x 15 m
Surface: gravel
Runway edge lights: low intensity
RUNWAY 15  RUNWAY 33
Traffic pattern: rightleft
Obstructions: hill, 2400 ft. from runwayhill, 2640 ft. from runway

Airport Ownership and Management from official FAA records

Ownership: Privately-owned
OWNER: DONALD D. CHAPIN JR. AND BARBARA A. CHAPIN AS CO-TRUSTEES OF THE CHAPIN LIVING TRUST DATED APRIL 27, 1999.
Owner: DON CHAPIN JR.
480 CRAZY HORSE RD
SALINAS, CA 93907
Phone 831-449-4273
Manager: DON CHAPIN JR.
480 CRAZY HORSE RD
SALINAS, CA 93907
Phone 831-449-4273

Airport Operational Statistics

Aircraft based on the field: 1
Single engine airplanes: 1
    

Additional Remarks

INTENSIVE AEROBATIC ACTIVITY INVOF AIRPORT.
FOR CD CTC OAKLAND ARTCC AT 510-745-3380.

Instrument Procedures

There are no published instrument procedures at 3CA7.

Some nearby airports with instrument procedures:

KHGT - Tusi Army Heliport (Hunter Liggett) (20 nm S)
KSNS - Salinas Municipal Airport (29 nm NW)
KOAR - Marina Municipal Airport (35 nm NW)
KMRY - Monterey Regional Airport (35 nm NW)
KCVH - Hollister Municipal Airport (36 nm N)
 
Loc | Ops | Rwys | IFR | FBO | Links
Com | Nav | Svcs | Stats | Notes
Area around 3CA7 (Metz Airport)
 
Road maps at: MapQuest Bing Google
 
Aerial photo
No photo
 
Sectional chart

 
Airport distance calculator
Flying to Metz Airport? Find the distance to fly.

From to 3CA7

Sunrise and sunset
Times for 30-Nov-2021
 Local
(UTC-8)
 Zulu
(UTC)
Morning civil twilight06:3014:30
Sunrise06:5814:58
Sunset16:4900:49
Evening civil twilight17:1701:17

Current date and time
Zulu (UTC)  30-Nov-2021 19:35:28
Local (UTC-8)  30-Nov-2021 11:35:28
 
METAR
KSNS 
28nm NW 
301853Z 11005KT 10SM CLR 19/05 A3012 RMK AO2 SLP209 T01940050
KOAR 
35nm NW 
134.025 831-384-2967
301915Z AUTO 14005KT 10SM CLR 18/05 A3011 RMK AO2
KMRY 
35nm NW 
301854Z 29004KT 10SM CLR 21/07 A3012 RMK AO2 SLP210 T02060072
KCVH 
36nm N 
301915Z AUTO 30005KT 10SM CLR 17/07 A3014 RMK A01
TAF
KSNS 
28nm NW 
301736Z 3018/0118 13006KT P6SM SKC FM302100 29010KT P6SM SKC FM010100 30006KT P6SM SKC FM010300 VRB03KT P6SM SKC FM010800 11008KT P6SM SKC FM011100 12013G18KT P6SM SKC
KMRY 
35nm NW 
301736Z 3018/0118 VRB04KT 6SM BR SCT003 FM301900 30005KT P6SM SKC FM010100 11003KT P6SM SKC
NOTAMs
Click for the latest NOTAMs
NOTAMs are issued by the DoD/FAA and will open in a separate window not controlled by AirNav.

 

 
 

Would you like to see your business listed on this page?

 If your business provides an interesting product or service to pilots, flight crews, aircraft, or users of the Metz Airport, you should consider listing it here.  To start the listing process, click on the button below
 
Add a business
 

Other Pages about Metz Airport

Update a link
 
Copyright © AirNav, LLC. All rights reserved. Privacy Policy  Contact